createdAt,value
2019-04-14T00:01:23.790Z,38.47
2019-04-14T00:04:11.457Z,37.63
2019-04-14T00:06:41.953Z,36.47
2019-04-14T00:09:16.514Z,34.67
2019-04-14T00:11:46.140Z,35.23
2019-04-14T00:14:16.377Z,37.87
2019-04-14T00:16:46.748Z,36.43
2019-04-14T00:19:17.159Z,39.20
2019-04-14T00:21:47.611Z,35.17
2019-04-14T00:24:18.345Z,31.57
2019-04-14T00:26:48.791Z,35.37
2019-04-14T00:29:19.495Z,37.63
2019-04-14T00:31:51.066Z,34.33
2019-04-14T00:34:37.872Z,33.53
2019-04-14T00:37:18.461Z,33.53
2019-04-14T00:39:55.937Z,34.60
2019-04-14T00:42:29.863Z,39.97
2019-04-14T00:45:00.860Z,34.10
2019-04-14T00:47:33.132Z,38.50
2019-04-14T00:50:03.610Z,33.63
2019-04-14T00:52:34.077Z,34.63
2019-04-14T00:55:05.288Z,36.43
2019-04-14T00:57:35.553Z,34.77
2019-04-14T01:00:08.221Z,33.70
2019-04-14T01:02:38.521Z,33.20
2019-04-14T01:05:08.974Z,45.00
2019-04-14T01:07:39.149Z,40.63
2019-04-14T01:10:10.307Z,36.23
2019-04-14T01:12:40.929Z,35.00
2019-04-14T01:15:11.502Z,39.20
2019-04-14T01:17:41.781Z,37.20
2019-04-14T01:20:12.417Z,42.00
2019-04-14T01:22:42.440Z,43.02
2019-04-14T01:25:12.844Z,35.07
2019-04-14T01:27:42.906Z,43.47
2019-04-14T01:30:13.341Z,39.87
2019-04-14T01:32:43.642Z,39.73
2019-04-14T01:35:13.856Z,37.93
2019-04-14T01:37:44.093Z,38.43
2019-04-14T01:40:14.223Z,36.80
2019-04-14T01:42:44.227Z,37.13
2019-04-14T01:45:16.448Z,38.87
2019-04-14T01:47:46.756Z,38.60
2019-04-14T01:50:19.056Z,40.97
2019-04-14T01:52:50.228Z,39.07
2019-04-14T01:55:24.479Z,40.33
2019-04-14T01:57:56.769Z,39.97
2019-04-14T02:00:46.670Z,41.43
2019-04-14T02:03:17.063Z,42.43
2019-04-14T02:05:47.478Z,44.60
2019-04-14T02:08:17.720Z,39.13
2019-04-14T02:10:47.859Z,40.93
2019-04-14T02:13:18.190Z,41.93
2019-04-14T02:15:48.515Z,42.40
2019-04-14T02:18:18.551Z,44.43
2019-04-14T02:20:49.065Z,42.33
2019-04-14T02:23:19.251Z,49.37
2019-04-14T02:25:49.380Z,47.53
2019-04-14T02:28:19.903Z,47.80
2019-04-14T02:31:00.212Z,46.55
2019-04-14T02:33:44.715Z,49.17
2019-04-14T02:36:21.942Z,45.70
2019-04-14T02:39:01.829Z,48.25
2019-04-14T02:41:40.895Z,48.80
2019-04-14T02:43:58.095Z,51.13
2019-04-14T02:46:26.268Z,45.40
2019-04-14T02:49:00.280Z,47.97
2019-04-14T02:58:59.902Z,48.38
2019-04-14T03:01:31.594Z,50.07
2019-04-14T03:03:56.355Z,50.67
2019-04-14T03:06:35.334Z,48.13
2019-04-14T03:11:31.266Z,44.20
2019-04-14T03:14:07.595Z,43.80
2019-04-14T03:16:39.680Z,45.10
2019-04-14T03:19:14.079Z,50.90
2019-04-14T03:24:18.538Z,44.17
2019-04-14T03:27:18.429Z,50.27
2019-04-14T03:29:44.937Z,49.63
2019-04-14T03:32:28.892Z,44.45
2019-04-14T03:34:55.180Z,45.20
2019-04-14T03:37:39.579Z,45.77
2019-04-14T03:39:48.068Z,40.20
2019-04-14T03:42:21.262Z,44.27
2019-04-14T03:44:49.524Z,44.03
2019-04-14T03:47:21.317Z,43.80
2019-04-14T03:49:52.913Z,42.23
2019-04-14T03:52:26.888Z,39.60
2019-04-14T03:54:44.026Z,41.77
2019-04-14T03:56:59.857Z,41.50
2019-04-14T03:59:30.284Z,44.30
2019-04-14T04:02:00.786Z,41.50
2019-04-14T04:04:31.492Z,41.60
2019-04-14T04:07:01.848Z,41.23
2019-04-14T04:09:36.494Z,43.30
2019-04-14T04:12:05.902Z,47.03
2019-04-14T04:14:35.756Z,43.87
2019-04-14T04:17:19.327Z,46.37
2019-04-14T04:19:56.148Z,39.20
2019-04-14T04:22:43.482Z,39.30
2019-04-14T04:25:14.513Z,43.87
2019-04-14T04:27:51.157Z,42.20
2019-04-14T04:30:31.832Z,44.60
2019-04-14T04:33:02.889Z,43.60
2019-04-14T04:35:50.069Z,46.60
2019-04-14T04:38:33.522Z,40.33
2019-04-14T04:41:03.772Z,41.50
2019-04-14T04:43:34.109Z,45.80
2019-04-14T04:46:04.744Z,43.27
2019-04-14T04:48:34.950Z,42.67
2019-04-14T04:51:05.028Z,42.50
2019-04-14T04:53:35.393Z,43.70
2019-04-14T04:56:05.770Z,45.07
2019-04-14T04:58:35.216Z,40.70
2019-04-14T05:01:05.647Z,40.92
2019-04-14T05:03:36.390Z,40.80
2019-04-14T05:06:59.263Z,40.77
2019-04-14T05:09:32.432Z,41.53
2019-04-14T05:12:15.385Z,44.40
2019-04-14T05:15:01.422Z,42.07
2019-04-14T05:17:38.896Z,43.33
2019-04-14T05:20:09.499Z,45.23
2019-04-14T05:22:39.804Z,43.28
2019-04-14T05:25:10.096Z,46.90
2019-04-14T05:27:40.833Z,48.30
2019-04-14T05:30:11.201Z,46.43
2019-04-14T05:32:41.282Z,51.40
2019-04-14T05:35:11.927Z,44.93
2019-04-14T05:37:42.107Z,47.23
2019-04-14T05:40:12.401Z,44.23
2019-04-14T05:42:42.736Z,49.00
2019-04-14T05:45:13.350Z,46.93
2019-04-14T05:47:43.630Z,49.10
2019-04-14T05:50:13.706Z,50.63
2019-04-14T05:52:43.133Z,45.43
2019-04-14T05:55:13.480Z,50.15
2019-04-14T05:57:43.772Z,48.50
2019-04-14T06:00:16.740Z,44.43
2019-04-14T06:02:46.425Z,51.97
2019-04-14T06:05:18.984Z,51.60
2019-04-14T06:07:48.354Z,48.33
2019-04-14T06:10:17.744Z,49.50
2019-04-14T06:12:47.786Z,50.08
2019-04-14T06:15:17.742Z,46.23
2019-04-14T06:17:47.811Z,46.95
2019-04-14T06:20:17.816Z,48.02
2019-04-14T06:22:47.917Z,46.25
2019-04-14T06:25:17.804Z,51.50
2019-04-14T06:27:47.878Z,49.20
2019-04-14T06:30:35.688Z,47.00
2019-04-14T06:33:09.681Z,54.30
2019-04-14T06:35:57.145Z,50.87
2019-04-14T06:38:28.428Z,46.70
2019-04-14T06:41:02.139Z,49.07
2019-04-14T06:43:31.859Z,51.47
2019-04-14T06:46:01.593Z,51.40
2019-04-14T06:48:30.985Z,51.33
2019-04-14T06:51:00.357Z,53.53
2019-04-14T06:53:29.727Z,52.17
2019-04-14T06:55:59.101Z,50.33
2019-04-14T06:58:28.463Z,55.87
2019-04-14T07:00:57.840Z,50.33
2019-04-14T07:03:27.218Z,54.13
2019-04-14T07:05:56.596Z,46.55
2019-04-14T07:08:25.958Z,50.33
2019-04-14T07:10:55.343Z,51.67
2019-04-14T07:13:24.998Z,47.73
2019-04-14T07:15:54.367Z,50.80
2019-04-14T07:18:23.730Z,52.57
2019-04-14T07:20:53.117Z,53.68
2019-04-14T07:23:22.794Z,50.65
2019-04-14T07:25:52.250Z,49.03
2019-04-14T07:28:21.622Z,51.87
2019-04-14T07:31:08.098Z,45.93
2019-04-14T07:33:39.125Z,46.45
2019-04-14T07:36:10.131Z,51.48
2019-04-14T07:38:41.135Z,47.07
2019-04-14T07:41:27.702Z,44.75
2019-04-14T07:43:58.707Z,45.57
2019-04-14T07:46:38.453Z,45.40
2019-04-14T07:49:25.471Z,49.50
2019-04-14T07:52:12.803Z,54.17
2019-04-14T07:54:46.352Z,45.33
2019-04-14T07:57:17.370Z,50.67
2019-04-14T08:00:04.248Z,53.17
2019-04-14T08:02:38.014Z,51.10
2019-04-14T08:05:12.136Z,51.40
2019-04-14T08:07:42.186Z,50.60
2019-04-14T08:10:11.689Z,50.10
2019-04-14T08:12:41.059Z,47.47
2019-04-14T08:15:10.744Z,42.97
2019-04-14T08:17:40.441Z,47.20
2019-04-14T08:20:10.021Z,47.87
2019-04-14T08:22:39.416Z,47.93
2019-04-14T08:25:09.151Z,43.67
2019-04-14T08:27:38.491Z,46.93
2019-04-14T08:30:10.101Z,39.53
2019-04-14T08:32:39.748Z,46.90
2019-04-14T08:35:09.839Z,45.83
2019-04-14T08:37:39.234Z,43.57
2019-04-14T08:40:08.838Z,42.63
2019-04-14T08:42:52.046Z,45.20
2019-04-14T08:45:25.749Z,41.93
2019-04-14T08:47:56.759Z,45.48
2019-04-14T08:50:43.691Z,39.48
2019-04-14T08:53:14.929Z,37.23
2019-04-14T08:55:54.747Z,38.37
2019-04-14T08:58:28.466Z,36.43
2019-04-14T09:01:05.391Z,37.33
2019-04-14T09:03:36.394Z,30.77
2019-04-14T09:06:13.217Z,31.70
2019-04-14T09:08:44.222Z,32.43
2019-04-14T09:11:15.503Z,32.40
2019-04-14T09:13:44.898Z,29.77
2019-04-14T09:16:14.283Z,31.20
2019-04-14T09:18:43.652Z,29.70
2019-04-14T09:21:13.032Z,29.93
2019-04-14T09:23:42.409Z,27.00
2019-04-14T09:26:12.067Z,29.73
2019-04-14T09:28:41.447Z,32.17
2019-04-14T09:31:10.832Z,31.37
2019-04-14T09:33:40.206Z,29.50
2019-04-14T09:36:09.670Z,28.90
2019-04-14T09:38:39.044Z,27.87
2019-04-14T09:41:08.433Z,27.30
2019-04-14T09:43:37.840Z,28.25
2019-04-14T09:46:07.471Z,28.50
2019-04-14T09:48:36.813Z,30.57
2019-04-14T09:51:06.269Z,28.73
2019-04-14T09:53:35.995Z,31.60
2019-04-14T09:56:05.683Z,34.00
2019-04-14T09:58:35.049Z,34.70
2019-04-14T10:01:04.813Z,31.87
2019-04-14T10:03:34.181Z,34.73
2019-04-14T10:06:03.621Z,30.83
2019-04-14T10:08:32.999Z,32.73
2019-04-14T10:11:02.381Z,34.80
2019-04-14T10:13:31.761Z,32.23
2019-04-14T10:16:01.147Z,34.63
2019-04-14T10:18:30.512Z,31.17
2019-04-14T10:20:59.891Z,32.73
2019-04-14T10:23:29.535Z,42.27
2019-04-14T10:25:58.917Z,37.70
2019-04-14T10:28:28.294Z,30.60
2019-04-14T10:30:57.672Z,29.80
2019-04-14T10:33:27.055Z,29.97
2019-04-14T10:35:56.605Z,32.60
2019-04-14T10:38:26.005Z,31.93
2019-04-14T10:40:55.674Z,31.63
2019-04-14T10:43:25.060Z,33.38
2019-04-14T10:45:54.434Z,27.17
2019-04-14T10:48:24.171Z,29.33
2019-04-14T10:50:53.563Z,33.67
2019-04-14T10:53:23.278Z,29.77
2019-04-14T10:55:52.821Z,35.23
2019-04-14T10:58:22.212Z,31.83
2019-04-14T11:00:51.667Z,31.03
2019-04-14T11:03:21.040Z,30.93
2019-04-14T11:05:55.253Z,30.25
2019-04-14T11:08:24.655Z,30.60
2019-04-14T11:10:54.034Z,31.67
2019-04-14T11:13:23.451Z,33.30
2019-04-14T11:15:52.810Z,30.43
2019-04-14T11:18:22.216Z,31.27
2019-04-14T11:20:51.920Z,32.47
2019-04-14T11:23:21.336Z,31.17
2019-04-14T11:25:50.856Z,31.45
2019-04-14T11:28:21.090Z,28.70
2019-04-14T11:30:51.206Z,30.08
2019-04-14T11:33:25.458Z,31.87
2019-04-14T11:35:59.170Z,33.38
2019-04-14T11:38:33.386Z,31.90
2019-04-14T11:41:03.024Z,32.77
2019-04-14T11:43:32.431Z,32.70
2019-04-14T11:46:03.765Z,31.30
2019-04-14T11:48:32.897Z,29.20
2019-04-14T11:51:02.303Z,29.60
2019-04-14T11:53:31.683Z,31.80
2019-04-14T11:56:01.463Z,30.07
2019-04-14T11:58:30.840Z,29.60
2019-04-14T12:01:04.791Z,28.37
2019-04-14T12:03:36.123Z,29.97
2019-04-14T12:06:19.356Z,26.07
2019-04-14T12:08:55.971Z,24.67
2019-04-14T12:11:25.365Z,28.70
2019-04-14T12:13:55.672Z,25.73
2019-04-14T12:16:25.069Z,28.10
2019-04-14T12:18:54.446Z,27.17
2019-04-14T12:21:23.835Z,24.23
2019-04-14T12:23:53.217Z,28.37
2019-04-14T12:26:22.601Z,26.07
2019-04-14T12:28:51.988Z,27.73
2019-04-14T12:31:21.852Z,25.00
2019-04-14T12:33:51.374Z,28.40
2019-04-14T12:36:21.448Z,24.05
2019-04-14T12:38:51.596Z,21.75
2019-04-14T12:41:33.220Z,24.67
2019-04-14T12:44:04.208Z,26.47
2019-04-14T12:46:41.639Z,25.10
2019-04-14T12:49:18.668Z,22.67
2019-04-14T12:51:55.226Z,23.03
2019-04-14T12:54:25.971Z,21.60
2019-04-14T12:56:56.640Z,24.57
2019-04-14T12:59:26.581Z,23.07
2019-04-14T13:02:03.496Z,22.25
2019-04-14T13:04:32.873Z,22.77
2019-04-14T13:07:02.263Z,23.13
2019-04-14T13:09:31.633Z,22.10
2019-04-14T13:12:01.024Z,20.70
2019-04-14T13:14:30.387Z,23.23
2019-04-14T13:16:59.773Z,25.43
2019-04-14T13:19:29.145Z,21.63
2019-04-14T13:21:58.782Z,19.97
2019-04-14T13:24:28.152Z,22.20
2019-04-14T13:26:57.605Z,20.47
2019-04-14T13:29:26.996Z,20.43
2019-04-14T13:31:56.375Z,25.25
2019-04-14T13:34:25.756Z,20.43
2019-04-14T13:36:55.467Z,20.23
2019-04-14T13:39:25.832Z,22.93
2019-04-14T13:41:55.203Z,23.73
2019-04-14T13:44:24.592Z,20.53
2019-04-14T13:46:53.970Z,23.73
2019-04-14T13:49:23.346Z,21.30
2019-04-14T13:51:52.971Z,20.23
2019-04-14T13:54:22.620Z,25.23
2019-04-14T13:56:52.204Z,19.62
2019-04-14T13:59:22.240Z,19.67
2019-04-14T14:01:52.244Z,24.75
2019-04-14T14:04:22.776Z,19.93
2019-04-14T14:06:53.217Z,21.64
2019-04-14T14:09:23.226Z,21.97
2019-04-14T14:12:04.065Z,19.45
2019-04-14T14:14:50.993Z,23.20
2019-04-14T14:17:30.935Z,19.40
2019-04-14T14:20:04.910Z,17.87
2019-04-14T14:22:36.157Z,19.80
2019-04-14T14:25:07.589Z,18.20
2019-04-14T14:27:36.964Z,18.67
2019-04-14T14:30:10.111Z,21.00
2019-04-14T14:32:39.736Z,17.83
2019-04-14T14:35:09.264Z,23.22
2019-04-14T14:37:38.635Z,18.83
2019-04-14T14:40:08.428Z,18.63
2019-04-14T14:42:37.798Z,20.13
2019-04-14T14:45:16.551Z,17.67
2019-04-14T14:47:47.705Z,16.93
2019-04-14T14:50:19.696Z,18.23
2019-04-14T14:52:49.043Z,16.60
2019-04-14T14:55:18.439Z,17.73
2019-04-14T14:57:47.793Z,19.47
2019-04-14T15:00:27.973Z,22.80
2019-04-14T15:02:57.352Z,17.57
2019-04-14T15:05:27.522Z,20.77
2019-04-14T15:07:56.894Z,16.17
2019-04-14T15:10:26.295Z,16.90
2019-04-14T15:12:55.741Z,19.07
2019-04-14T15:15:25.216Z,18.80
2019-04-14T15:17:54.600Z,17.77
2019-04-14T15:20:24.298Z,16.00
2019-04-14T15:22:54.124Z,17.07
2019-04-14T15:25:24.299Z,17.87
2019-04-14T15:27:54.139Z,19.05
2019-04-14T15:30:24.370Z,19.05
2019-04-14T15:32:53.993Z,20.75
2019-04-14T15:35:24.167Z,17.37
2019-04-14T15:37:53.960Z,20.52
2019-04-14T15:40:24.104Z,21.93
2019-04-14T15:42:54.020Z,22.25
2019-04-14T15:45:24.107Z,18.48
2019-04-14T15:47:54.030Z,19.45
2019-04-14T15:50:24.215Z,18.27
2019-04-14T15:52:54.135Z,19.02
2019-04-14T15:55:24.085Z,17.80
2019-04-14T15:57:55.808Z,22.35
2019-04-14T16:00:36.212Z,18.77
2019-04-14T16:03:25.439Z,20.20
2019-04-14T16:06:05.040Z,18.47
2019-04-14T16:08:38.566Z,17.97
2019-04-14T16:11:15.320Z,20.27
2019-04-14T16:13:54.856Z,21.00
2019-04-14T16:16:42.181Z,18.90
2019-04-14T16:19:18.877Z,20.73
2019-04-14T16:21:48.264Z,18.43
2019-04-14T16:24:17.649Z,18.93
2019-04-14T16:26:48.709Z,20.27
2019-04-14T16:29:25.565Z,18.90
2019-04-14T16:32:05.791Z,16.07
2019-04-14T16:34:36.809Z,20.02
2019-04-14T16:37:06.194Z,22.07
2019-04-14T16:39:35.900Z,18.17
2019-04-14T16:42:05.653Z,18.80
2019-04-14T16:44:35.029Z,18.60
2019-04-14T16:47:05.079Z,18.97
2019-04-14T16:49:34.465Z,17.30
2019-04-14T16:52:11.388Z,20.53
2019-04-14T16:54:58.623Z,19.27
2019-04-14T16:57:45.321Z,19.80
2019-04-14T17:00:17.042Z,14.63
2019-04-14T17:02:46.692Z,18.20
2019-04-14T17:05:16.156Z,22.17
2019-04-14T17:07:45.549Z,17.20
2019-04-14T17:10:14.958Z,18.17
2019-04-14T17:12:44.359Z,18.93
2019-04-14T17:15:27.664Z,18.83
2019-04-14T17:18:07.738Z,26.03
2019-04-14T17:20:54.906Z,24.83
2019-04-14T17:23:33.219Z,16.90
2019-04-14T17:26:10.517Z,18.48
2019-04-14T17:28:56.285Z,17.80
2019-04-14T17:31:27.587Z,18.63
2019-04-14T17:33:58.612Z,18.10
2019-04-14T17:36:29.664Z,19.07
2019-04-14T17:39:00.959Z,17.47
2019-04-14T17:41:32.986Z,18.00
2019-04-14T17:44:07.028Z,18.33
2019-04-14T17:46:38.077Z,19.30
2019-04-14T17:49:09.341Z,16.93
2019-04-14T17:51:42.797Z,19.20
2019-04-14T17:54:13.819Z,16.63
2019-04-14T17:56:45.147Z,19.17
2019-04-14T17:59:18.808Z,18.23
2019-04-14T18:02:08.130Z,15.40
2019-04-14T18:04:57.213Z,20.37
2019-04-14T18:07:44.277Z,16.00
2019-04-14T18:10:30.666Z,17.10
2019-04-14T18:13:19.830Z,18.57
2019-04-14T18:15:59.579Z,16.90
2019-04-14T18:18:39.337Z,17.30
2019-04-14T18:21:10.063Z,19.20
2019-04-14T18:23:39.434Z,22.47
2019-04-14T18:26:09.690Z,23.20
2019-04-14T18:28:46.389Z,17.33
2019-04-14T18:31:33.938Z,19.40
2019-04-14T18:34:08.266Z,21.63
2019-04-14T18:36:39.621Z,22.50
2019-04-14T18:39:14.462Z,21.75
2019-04-14T18:41:45.497Z,26.95
2019-04-14T18:44:19.348Z,25.97
2019-04-14T18:47:06.252Z,27.90
2019-04-14T18:49:43.216Z,26.83
2019-04-14T18:52:14.212Z,28.23
2019-04-14T18:54:57.182Z,24.90
2019-04-14T18:57:28.502Z,27.33
2019-04-14T18:59:59.511Z,37.23
2019-04-14T19:02:28.895Z,26.10
2019-04-14T19:04:58.281Z,28.50
2019-04-14T19:07:27.674Z,26.60
2019-04-14T19:09:57.203Z,23.00
2019-04-14T19:12:34.169Z,22.97
2019-04-14T19:15:06.563Z,24.50
2019-04-14T19:17:56.042Z,22.03
2019-04-14T19:20:25.415Z,23.43
2019-04-14T19:22:54.832Z,24.60
2019-04-14T19:25:24.169Z,20.50
2019-04-14T19:27:53.549Z,20.13
2019-04-14T19:30:23.436Z,20.17
2019-04-14T19:32:52.915Z,18.83
2019-04-14T19:35:22.307Z,22.05
2019-04-14T19:37:51.701Z,19.23
2019-04-14T19:40:21.342Z,19.17
2019-04-14T19:42:51.104Z,18.93
2019-04-14T19:45:20.722Z,21.53
2019-04-14T19:47:50.489Z,19.93
2019-04-14T19:50:19.859Z,18.87
2019-04-14T19:52:49.251Z,22.83
2019-04-14T19:55:20.553Z,25.63
2019-04-14T19:57:49.727Z,19.57
2019-04-14T20:00:19.698Z,21.67
2019-04-14T20:02:49.071Z,23.70
2019-04-14T20:05:18.568Z,19.07
2019-04-14T20:07:48.015Z,22.40
2019-04-14T20:10:17.404Z,20.20
2019-04-14T20:12:46.777Z,20.72
2019-04-14T20:15:18.003Z,21.63
2019-04-14T20:17:57.875Z,21.60
2019-04-14T20:20:45.087Z,19.33
2019-04-14T20:23:22.064Z,22.23
2019-04-14T20:26:11.217Z,20.77
2019-04-14T20:28:42.231Z,22.62
2019-04-14T20:31:29.843Z,22.53
2019-04-14T20:33:59.604Z,20.30
2019-04-14T20:36:28.984Z,21.60
2019-04-14T20:38:58.354Z,24.10
2019-04-14T20:41:27.723Z,18.97
2019-04-14T20:43:57.161Z,21.37
2019-04-14T20:46:26.543Z,21.43
2019-04-14T20:48:55.912Z,25.73
2019-04-14T20:51:25.298Z,22.07
2019-04-14T20:53:54.668Z,26.17
2019-04-14T20:56:24.082Z,21.53
2019-04-14T20:58:53.664Z,25.20
2019-04-14T21:01:23.309Z,22.43
2019-04-14T21:03:54.321Z,21.63
2019-04-14T21:06:25.639Z,19.13
2019-04-14T21:09:11.383Z,26.30
2019-04-14T21:11:42.409Z,25.63
2019-04-14T21:14:15.927Z,22.77
2019-04-14T21:16:52.994Z,29.02
2019-04-14T21:19:24.285Z,24.17
2019-04-14T21:21:55.297Z,23.27
2019-04-14T21:24:35.024Z,22.57
2019-04-14T21:27:15.343Z,19.20
2019-04-14T21:29:49.406Z,22.57
2019-04-14T21:32:26.208Z,25.53
2019-04-14T21:35:15.218Z,27.00
2019-04-14T21:37:58.509Z,22.37
2019-04-14T21:40:45.521Z,20.73
2019-04-14T21:43:14.973Z,20.67
2019-04-14T21:45:44.478Z,22.03
2019-04-14T21:48:13.852Z,23.63
2019-04-14T21:50:43.224Z,18.27
2019-04-14T21:53:12.601Z,20.33
2019-04-14T21:55:42.364Z,24.90
2019-04-14T21:58:25.228Z,21.07
2019-04-14T22:01:38.578Z,22.73
2019-04-14T22:04:21.693Z,20.70
2019-04-14T22:06:52.981Z,22.27
2019-04-14T22:09:24.336Z,21.87
2019-04-14T22:11:53.780Z,26.60
2019-04-14T22:14:23.220Z,23.57
2019-04-14T22:16:52.587Z,19.80
2019-04-14T22:19:21.967Z,18.57
2019-04-14T22:21:51.597Z,26.63
2019-04-14T22:24:21.092Z,23.53
2019-04-14T22:26:50.560Z,22.07
2019-04-14T22:29:19.935Z,21.23
2019-04-14T22:31:49.305Z,22.83
2019-04-14T22:34:18.990Z,21.50
2019-04-14T22:36:48.365Z,20.70
2019-04-14T22:39:17.914Z,17.20
2019-04-14T22:41:47.277Z,19.50
2019-04-14T22:44:16.909Z,19.43
2019-04-14T22:46:46.337Z,17.43
2019-04-14T22:49:16.021Z,18.07
2019-04-14T22:51:45.382Z,20.17
2019-04-14T22:54:14.779Z,19.73
2019-04-14T22:56:44.454Z,16.37
2019-04-14T22:59:14.161Z,21.33
2019-04-14T23:01:45.169Z,17.60
2019-04-14T23:04:16.201Z,17.57
2019-04-14T23:06:50.235Z,20.70
2019-04-14T23:09:21.262Z,18.63
2019-04-14T23:12:08.480Z,19.77
2019-04-14T23:14:54.274Z,19.73
2019-04-14T23:17:41.941Z,20.63
2019-04-14T23:20:13.280Z,17.43
2019-04-14T23:23:05.807Z,16.93
2019-04-14T23:25:35.329Z,16.93
2019-04-14T23:28:04.687Z,20.40
2019-04-14T23:30:34.493Z,19.15
2019-04-14T23:33:04.562Z,19.98
2019-04-14T23:35:34.584Z,19.20
2019-04-14T23:38:04.527Z,21.75
2019-04-14T23:40:34.612Z,19.60
2019-04-14T23:43:04.616Z,19.95
2019-04-14T23:45:34.609Z,17.45
2019-04-14T23:48:04.614Z,21.10
2019-04-14T23:50:34.691Z,18.62
2019-04-14T23:53:05.040Z,18.07
2019-04-14T23:55:34.745Z,19.57
2019-04-14T23:58:04.734Z,18.37
